sensor_id;sensor_type;location;lat;lon;timestamp;pressure;altitude;pressure_sealevel;temperature;humidity
7026;BME280;3554;42.132;24.786;2022-11-20T00:00:07;98562.44;;;14.48;100.00
7026;BME280;3554;42.132;24.786;2022-11-20T00:02:34;98557.91;;;14.50;100.00
7026;BME280;3554;42.132;24.786;2022-11-20T00:05:01;98557.34;;;14.70;100.00
7026;BME280;3554;42.132;24.786;2022-11-20T00:07:27;98554.81;;;14.81;100.00
7026;BME280;3554;42.132;24.786;2022-11-20T00:09:54;98567.69;;;14.61;100.00
7026;BME280;3554;42.132;24.786;2022-11-20T00:12:22;98575.13;;;14.79;100.00
7026;BME280;3554;42.132;24.786;2022-11-20T00:14:49;98569.69;;;14.70;100.00
7026;BME280;3554;42.132;24.786;2022-11-20T00:17:16;98569.59;;;14.71;100.00
7026;BME280;3554;42.132;24.786;2022-11-20T00:19:42;98552.53;;;14.52;100.00
7026;BME280;3554;42.132;24.786;2022-11-20T00:22:09;98562.22;;;14.64;100.00
7026;BME280;3554;42.132;24.786;2022-11-20T00:24:36;98549.44;;;14.70;100.00
7026;BME280;3554;42.132;24.786;2022-11-20T00:27:03;98544.09;;;14.72;100.00
7026;BME280;3554;42.132;24.786;2022-11-20T00:29:31;98573.34;;;14.92;100.00
7026;BME280;3554;42.132;24.786;2022-11-20T00:31:58;98579.13;;;14.85;100.00
7026;BME280;3554;42.132;24.786;2022-11-20T00:34:25;98590.31;;;14.76;100.00
7026;BME280;3554;42.132;24.786;2022-11-20T00:36:51;98572.22;;;14.71;100.00
7026;BME280;3554;42.132;24.786;2022-11-20T00:39:18;98558.72;;;14.51;100.00
7026;BME280;3554;42.132;24.786;2022-11-20T00:41:45;98578.88;;;14.64;100.00
7026;BME280;3554;42.132;24.786;2022-11-20T00:44:12;98570.75;;;14.67;100.00
7026;BME280;3554;42.132;24.786;2022-11-20T00:46:40;98566.63;;;14.63;100.00
7026;BME280;3554;42.132;24.786;2022-11-20T00:49:06;98550.13;;;14.61;100.00
7026;BME280;3554;42.132;24.786;2022-11-20T00:51:33;98550.75;;;14.52;100.00
7026;BME280;3554;42.132;24.786;2022-11-20T00:54:00;98577.59;;;14.70;100.00
7026;BME280;3554;42.132;24.786;2022-11-20T00:56:27;98579.78;;;14.76;100.00
7026;BME280;3554;42.132;24.786;2022-11-20T00:58:54;98574.94;;;14.82;100.00
7026;BME280;3554;42.132;24.786;2022-11-20T01:01:23;98562.19;;;14.76;100.00
7026;BME280;3554;42.132;24.786;2022-11-20T01:03:53;98563.34;;;14.85;100.00
7026;BME280;3554;42.132;24.786;2022-11-20T01:06:22;98577.88;;;14.90;100.00
7026;BME280;3554;42.132;24.786;2022-11-20T01:08:52;98582.94;;;14.81;100.00
7026;BME280;3554;42.132;24.786;2022-11-20T01:11:22;98576.88;;;14.55;100.00
7026;BME280;3554;42.132;24.786;2022-11-20T01:13:51;98580.63;;;14.76;100.00
7026;BME280;3554;42.132;24.786;2022-11-20T01:16:20;98572.19;;;14.84;100.00
7026;BME280;3554;42.132;24.786;2022-11-20T01:18:49;98569.06;;;14.66;100.00
7026;BME280;3554;42.132;24.786;2022-11-20T01:21:19;98559.69;;;14.62;100.00
7026;BME280;3554;42.132;24.786;2022-11-20T01:23:47;98567.94;;;14.45;100.00
7026;BME280;3554;42.132;24.786;2022-11-20T01:26:16;98565.47;;;14.67;100.00
7026;BME280;3554;42.132;24.786;2022-11-20T01:28:43;98556.44;;;14.59;100.00
7026;BME280;3554;42.132;24.786;2022-11-20T01:31:12;98529.97;;;14.73;100.00
7026;BME280;3554;42.132;24.786;2022-11-20T01:33:40;98547.34;;;14.75;100.00
7026;BME280;3554;42.132;24.786;2022-11-20T01:36:07;98545.16;;;14.44;100.00
7026;BME280;3554;42.132;24.786;2022-11-20T01:38:36;98551.44;;;14.67;100.00
7026;BME280;3554;42.132;24.786;2022-11-20T01:41:04;98525.22;;;14.65;100.00
7026;BME280;3554;42.132;24.786;2022-11-20T01:43:31;98540.59;;;14.71;100.00
7026;BME280;3554;42.132;24.786;2022-11-20T01:46:16;98546.78;;;14.83;100.00
7026;BME280;3554;42.132;24.786;2022-11-20T01:48:50;98540.69;;;14.82;100.00
7026;BME280;3554;42.132;24.786;2022-11-20T01:51:24;98528.78;;;14.77;100.00
7026;BME280;3554;42.132;24.786;2022-11-20T01:53:54;98533.41;;;14.86;100.00
7026;BME280;3554;42.132;24.786;2022-11-20T01:56:23;98542.25;;;14.85;100.00
7026;BME280;3554;42.132;24.786;2022-11-20T01:58:52;98532.06;;;14.80;100.00
7026;BME280;3554;42.132;24.786;2022-11-20T02:01:20;98543.78;;;14.51;100.00
7026;BME280;3554;42.132;24.786;2022-11-20T02:03:48;98526.69;;;14.69;100.00
7026;BME280;3554;42.132;24.786;2022-11-20T02:06:19;98527.94;;;14.76;100.00
7026;BME280;3554;42.132;24.786;2022-11-20T02:08:49;98533.09;;;14.78;100.00
7026;BME280;3554;42.132;24.786;2022-11-20T02:11:18;98541.13;;;14.76;100.00
7026;BME280;3554;42.132;24.786;2022-11-20T02:13:45;98529.34;;;14.69;100.00
7026;BME280;3554;42.132;24.786;2022-11-20T02:16:15;98534.88;;;14.77;100.00
7026;BME280;3554;42.132;24.786;2022-11-20T02:18:42;98538.63;;;14.62;100.00
7026;BME280;3554;42.132;24.786;2022-11-20T02:21:17;98515.66;;;14.52;100.00
7026;BME280;3554;42.132;24.786;2022-11-20T02:24:09;98520.19;;;14.62;100.00
7026;BME280;3554;42.132;24.786;2022-11-20T02:26:46;98514.94;;;14.50;100.00
7026;BME280;3554;42.132;24.786;2022-11-20T02:29:16;98517.22;;;14.67;100.00
7026;BME280;3554;42.132;24.786;2022-11-20T02:31:45;98512.91;;;14.66;100.00
7026;BME280;3554;42.132;24.786;2022-11-20T02:34:12;98521.44;;;14.69;100.00
7026;BME280;3554;42.132;24.786;2022-11-20T02:36:40;98526.28;;;14.75;100.00
7026;BME280;3554;42.132;24.786;2022-11-20T02:39:11;98480.44;;;14.65;100.00
7026;BME280;3554;42.132;24.786;2022-11-20T02:41:42;98522.19;;;14.59;100.00
7026;BME280;3554;42.132;24.786;2022-11-20T02:44:09;98492.38;;;14.58;100.00
7026;BME280;3554;42.132;24.786;2022-11-20T02:46:35;98514.19;;;14.60;100.00
7026;BME280;3554;42.132;24.786;2022-11-20T02:49:03;98503.16;;;14.43;100.00
7026;BME280;3554;42.132;24.786;2022-11-20T02:51:30;98501.03;;;14.48;100.00
7026;BME280;3554;42.132;24.786;2022-11-20T02:53:57;98487.63;;;14.63;100.00
7026;BME280;3554;42.132;24.786;2022-11-20T02:56:26;98482.06;;;14.55;100.00
7026;BME280;3554;42.132;24.786;2022-11-20T02:58:53;98467.38;;;14.64;100.00
7026;BME280;3554;42.132;24.786;2022-11-20T03:01:19;98489.75;;;14.94;100.00
7026;BME280;3554;42.132;24.786;2022-11-20T03:03:46;98487.72;;;14.98;100.00
7026;BME280;3554;42.132;24.786;2022-11-20T03:06:14;98489.81;;;14.69;100.00
7026;BME280;3554;42.132;24.786;2022-11-20T03:08:41;98499.00;;;14.64;100.00
7026;BME280;3554;42.132;24.786;2022-11-20T03:11:07;98488.34;;;14.65;100.00
7026;BME280;3554;42.132;24.786;2022-11-20T03:13:36;98512.78;;;14.67;100.00
7026;BME280;3554;42.132;24.786;2022-11-20T03:16:08;98525.09;;;14.67;100.00
7026;BME280;3554;42.132;24.786;2022-11-20T03:18:35;98496.91;;;14.56;100.00
7026;BME280;3554;42.132;24.786;2022-11-20T03:21:02;98503.75;;;14.59;100.00
7026;BME280;3554;42.132;24.786;2022-11-20T03:23:30;98502.38;;;14.66;100.00
7026;BME280;3554;42.132;24.786;2022-11-20T03:26:10;98482.66;;;14.71;100.00
7026;BME280;3554;42.132;24.786;2022-11-20T03:28:39;98486.97;;;14.72;100.00
7026;BME280;3554;42.132;24.786;2022-11-20T03:31:10;98472.53;;;14.65;100.00
7026;BME280;3554;42.132;24.786;2022-11-20T03:33:38;98479.00;;;14.61;100.00
7026;BME280;3554;42.132;24.786;2022-11-20T03:36:07;98499.19;;;14.73;100.00
7026;BME280;3554;42.132;24.786;2022-11-20T03:38:35;98478.56;;;14.55;100.00
7026;BME280;3554;42.132;24.786;2022-11-20T03:41:04;98482.47;;;14.62;100.00
7026;BME280;3554;42.132;24.786;2022-11-20T03:43:32;98496.06;;;14.68;100.00
7026;BME280;3554;42.132;24.786;2022-11-20T03:46:00;98485.59;;;14.67;100.00
7026;BME280;3554;42.132;24.786;2022-11-20T03:48:27;98485.00;;;14.51;100.00
7026;BME280;3554;42.132;24.786;2022-11-20T03:51:07;98483.41;;;14.61;100.00
7026;BME280;3554;42.132;24.786;2022-11-20T03:53:34;98462.47;;;14.83;100.00
7026;BME280;3554;42.132;24.786;2022-11-20T03:56:00;98470.44;;;14.94;100.00
7026;BME280;3554;42.132;24.786;2022-11-20T03:58:27;98475.41;;;14.98;100.00
7026;BME280;3554;42.132;24.786;2022-11-20T04:00:54;98482.59;;;14.96;100.00
7026;BME280;3554;42.132;24.786;2022-11-20T04:03:22;98489.88;;;14.93;100.00
7026;BME280;3554;42.132;24.786;2022-11-20T04:05:49;98504.81;;;14.92;100.00
7026;BME280;3554;42.132;24.786;2022-11-20T04:08:15;98504.31;;;14.87;100.00
7026;BME280;3554;42.132;24.786;2022-11-20T04:10:42;98505.06;;;14.89;100.00
7026;BME280;3554;42.132;24.786;2022-11-20T04:13:09;98480.66;;;14.75;100.00
7026;BME280;3554;42.132;24.786;2022-11-20T04:15:36;98460.03;;;14.56;100.00
7026;BME280;3554;42.132;24.786;2022-11-20T04:18:02;98490.63;;;14.82;100.00
7026;BME280;3554;42.132;24.786;2022-11-20T04:20:31;98495.13;;;14.93;100.00
7026;BME280;3554;42.132;24.786;2022-11-20T04:22:57;98494.97;;;15.07;100.00
7026;BME280;3554;42.132;24.786;2022-11-20T04:25:24;98462.84;;;15.02;100.00
7026;BME280;3554;42.132;24.786;2022-11-20T04:27:51;98455.03;;;14.77;100.00
7026;BME280;3554;42.132;24.786;2022-11-20T04:30:17;98464.63;;;15.01;100.00
7026;BME280;3554;42.132;24.786;2022-11-20T04:32:44;98458.94;;;15.08;100.00
7026;BME280;3554;42.132;24.786;2022-11-20T04:35:11;98446.81;;;15.05;100.00
7026;BME280;3554;42.132;24.786;2022-11-20T04:37:39;98440.50;;;15.19;100.00
7026;BME280;3554;42.132;24.786;2022-11-20T04:40:06;98454.34;;;15.10;100.00
7026;BME280;3554;42.132;24.786;2022-11-20T04:42:33;98457.28;;;15.18;100.00
7026;BME280;3554;42.132;24.786;2022-11-20T04:45:00;98470.13;;;15.22;100.00
7026;BME280;3554;42.132;24.786;2022-11-20T04:47:27;98472.59;;;15.13;100.00
7026;BME280;3554;42.132;24.786;2022-11-20T04:49:53;98463.47;;;15.06;100.00
7026;BME280;3554;42.132;24.786;2022-11-20T04:52:20;98458.44;;;14.90;100.00
7026;BME280;3554;42.132;24.786;2022-11-20T04:54:48;98443.84;;;14.86;100.00
7026;BME280;3554;42.132;24.786;2022-11-20T04:57:18;98451.03;;;14.71;100.00
7026;BME280;3554;42.132;24.786;2022-11-20T04:59:44;98445.06;;;14.93;100.00
7026;BME280;3554;42.132;24.786;2022-11-20T05:02:11;98445.00;;;14.82;100.00
7026;BME280;3554;42.132;24.786;2022-11-20T05:04:38;98438.94;;;14.92;100.00
7026;BME280;3554;42.132;24.786;2022-11-20T05:07:05;98432.94;;;14.90;100.00
7026;BME280;3554;42.132;24.786;2022-11-20T05:09:31;98419.09;;;14.99;100.00
7026;BME280;3554;42.132;24.786;2022-11-20T05:11:59;98422.41;;;14.90;100.00
7026;BME280;3554;42.132;24.786;2022-11-20T05:14:26;98430.19;;;14.92;100.00
7026;BME280;3554;42.132;24.786;2022-11-20T05:16:53;98426.63;;;14.93;100.00
7026;BME280;3554;42.132;24.786;2022-11-20T05:19:20;98421.31;;;15.17;100.00
7026;BME280;3554;42.132;24.786;2022-11-20T05:21:47;98426.59;;;15.17;100.00
7026;BME280;3554;42.132;24.786;2022-11-20T05:24:13;98428.16;;;15.19;100.00
7026;BME280;3554;42.132;24.786;2022-11-20T05:26:40;98428.28;;;15.18;100.00
7026;BME280;3554;42.132;24.786;2022-11-20T05:29:10;98437.69;;;15.33;100.00
7026;BME280;3554;42.132;24.786;2022-11-20T05:31:39;98444.84;;;15.20;100.00
7026;BME280;3554;42.132;24.786;2022-11-20T05:34:06;98439.75;;;15.06;100.00
7026;BME280;3554;42.132;24.786;2022-11-20T05:36:33;98440.47;;;15.08;100.00
7026;BME280;3554;42.132;24.786;2022-11-20T05:39:00;98450.72;;;15.23;100.00
7026;BME280;3554;42.132;24.786;2022-11-20T05:41:27;98467.03;;;15.04;100.00
7026;BME280;3554;42.132;24.786;2022-11-20T05:43:55;98454.47;;;15.08;100.00
7026;BME280;3554;42.132;24.786;2022-11-20T05:46:24;98426.88;;;14.54;100.00
7026;BME280;3554;42.132;24.786;2022-11-20T05:48:51;98450.13;;;14.60;100.00
7026;BME280;3554;42.132;24.786;2022-11-20T05:51:18;98434.94;;;14.63;100.00
7026;BME280;3554;42.132;24.786;2022-11-20T05:53:45;98433.91;;;14.89;100.00
7026;BME280;3554;42.132;24.786;2022-11-20T05:56:13;98441.19;;;15.10;100.00
7026;BME280;3554;42.132;24.786;2022-11-20T05:58:41;98435.69;;;15.13;100.00
7026;BME280;3554;42.132;24.786;2022-11-20T06:01:09;98460.72;;;15.07;100.00
7026;BME280;3554;42.132;24.786;2022-11-20T06:03:39;98470.34;;;14.95;100.00
7026;BME280;3554;42.132;24.786;2022-11-20T06:06:08;98452.31;;;15.02;100.00
7026;BME280;3554;42.132;24.786;2022-11-20T06:08:35;98457.66;;;15.00;100.00
7026;BME280;3554;42.132;24.786;2022-11-20T06:11:05;98490.31;;;15.11;100.00
7026;BME280;3554;42.132;24.786;2022-11-20T06:13:32;98470.31;;;14.84;100.00
7026;BME280;3554;42.132;24.786;2022-11-20T06:15:59;98454.03;;;15.14;100.00
7026;BME280;3554;42.132;24.786;2022-11-20T06:18:26;98482.28;;;15.36;100.00
7026;BME280;3554;42.132;24.786;2022-11-20T06:21:06;98494.41;;;15.38;100.00
7026;BME280;3554;42.132;24.786;2022-11-20T06:23:34;98487.53;;;15.48;100.00
7026;BME280;3554;42.132;24.786;2022-11-20T06:26:02;98492.41;;;15.42;100.00
7026;BME280;3554;42.132;24.786;2022-11-20T06:28:29;98522.59;;;15.38;100.00
7026;BME280;3554;42.132;24.786;2022-11-20T06:30:56;98547.91;;;15.64;100.00
7026;BME280;3554;42.132;24.786;2022-11-20T06:33:23;98544.66;;;15.60;100.00
7026;BME280;3554;42.132;24.786;2022-11-20T06:35:50;98549.13;;;15.71;100.00
7026;BME280;3554;42.132;24.786;2022-11-20T06:38:19;98564.47;;;16.00;100.00
7026;BME280;3554;42.132;24.786;2022-11-20T06:40:46;98571.50;;;15.89;100.00
7026;BME280;3554;42.132;24.786;2022-11-20T06:43:13;98568.84;;;16.13;100.00
7026;BME280;3554;42.132;24.786;2022-11-20T06:45:40;98569.22;;;16.30;100.00
7026;BME280;3554;42.132;24.786;2022-11-20T06:48:06;98598.34;;;16.52;100.00
7026;BME280;3554;42.132;24.786;2022-11-20T06:50:33;98620.13;;;16.43;100.00
7026;BME280;3554;42.132;24.786;2022-11-20T06:53:01;98651.78;;;16.56;100.00
7026;BME280;3554;42.132;24.786;2022-11-20T06:55:31;98641.25;;;16.78;100.00
7026;BME280;3554;42.132;24.786;2022-11-20T06:57:58;98633.91;;;16.48;100.00
7026;BME280;3554;42.132;24.786;2022-11-20T07:00:24;98639.66;;;16.53;100.00
7026;BME280;3554;42.132;24.786;2022-11-20T07:02:51;98630.78;;;16.31;100.00
7026;BME280;3554;42.132;24.786;2022-11-20T07:05:18;98652.66;;;15.98;100.00
7026;BME280;3554;42.132;24.786;2022-11-20T07:07:45;98634.84;;;15.89;100.00
7026;BME280;3554;42.132;24.786;2022-11-20T07:10:12;98614.88;;;15.50;100.00
7026;BME280;3554;42.132;24.786;2022-11-20T07:12:40;98605.09;;;15.63;100.00
7026;BME280;3554;42.132;24.786;2022-11-20T07:15:08;98615.03;;;15.60;100.00
7026;BME280;3554;42.132;24.786;2022-11-20T07:17:34;98618.69;;;15.70;100.00
7026;BME280;3554;42.132;24.786;2022-11-20T07:20:01;98600.00;;;15.73;100.00
7026;BME280;3554;42.132;24.786;2022-11-20T07:22:28;98556.31;;;15.45;100.00
7026;BME280;3554;42.132;24.786;2022-11-20T07:24:55;98597.06;;;15.65;100.00
7026;BME280;3554;42.132;24.786;2022-11-20T07:27:21;98610.78;;;15.70;100.00
7026;BME280;3554;42.132;24.786;2022-11-20T07:29:49;98602.28;;;15.77;100.00
7026;BME280;3554;42.132;24.786;2022-11-20T07:32:16;98597.72;;;15.79;100.00
7026;BME280;3554;42.132;24.786;2022-11-20T07:34:43;98605.81;;;15.89;100.00
7026;BME280;3554;42.132;24.786;2022-11-20T07:37:10;98616.63;;;15.97;100.00
7026;BME280;3554;42.132;24.786;2022-11-20T07:39:36;98619.06;;;16.00;100.00
7026;BME280;3554;42.132;24.786;2022-11-20T07:42:03;98630.88;;;16.18;100.00
7026;BME280;3554;42.132;24.786;2022-11-20T07:44:30;98633.19;;;16.23;100.00
7026;BME280;3554;42.132;24.786;2022-11-20T07:46:58;98637.19;;;16.39;100.00
7026;BME280;3554;42.132;24.786;2022-11-20T07:49:25;98641.47;;;16.29;100.00
7026;BME280;3554;42.132;24.786;2022-11-20T07:51:52;98648.00;;;16.01;100.00
7026;BME280;3554;42.132;24.786;2022-11-20T07:54:19;98645.41;;;16.13;100.00
7026;BME280;3554;42.132;24.786;2022-11-20T07:56:46;98636.00;;;16.08;100.00
7026;BME280;3554;42.132;24.786;2022-11-20T07:59:13;98638.78;;;16.18;100.00
7026;BME280;3554;42.132;24.786;2022-11-20T08:01:41;98626.06;;;16.12;100.00
7026;BME280;3554;42.132;24.786;2022-11-20T08:04:09;98629.56;;;16.24;100.00
7026;BME280;3554;42.132;24.786;2022-11-20T08:06:36;98635.44;;;16.16;100.00
7026;BME280;3554;42.132;24.786;2022-11-20T08:09:03;98638.09;;;16.27;100.00
7026;BME280;3554;42.132;24.786;2022-11-20T08:11:30;98632.25;;;16.35;100.00
7026;BME280;3554;42.132;24.786;2022-11-20T08:14:14;98632.13;;;16.36;100.00
7026;BME280;3554;42.132;24.786;2022-11-20T08:16:42;98637.69;;;16.44;100.00
7026;BME280;3554;42.132;24.786;2022-11-20T08:19:11;98640.75;;;16.62;100.00
7026;BME280;3554;42.132;24.786;2022-11-20T08:21:39;98647.28;;;16.80;100.00
7026;BME280;3554;42.132;24.786;2022-11-20T08:24:06;98639.25;;;16.92;100.00
7026;BME280;3554;42.132;24.786;2022-11-20T08:26:34;98662.31;;;17.01;100.00
7026;BME280;3554;42.132;24.786;2022-11-20T08:29:01;98660.38;;;17.26;100.00
7026;BME280;3554;42.132;24.786;2022-11-20T08:31:28;98673.22;;;17.41;100.00
7026;BME280;3554;42.132;24.786;2022-11-20T08:33:55;98696.47;;;17.60;100.00
7026;BME280;3554;42.132;24.786;2022-11-20T08:36:23;98696.84;;;17.98;100.00
7026;BME280;3554;42.132;24.786;2022-11-20T08:38:52;98693.25;;;18.31;100.00
7026;BME280;3554;42.132;24.786;2022-11-20T08:41:19;98682.75;;;18.40;100.00
7026;BME280;3554;42.132;24.786;2022-11-20T08:43:54;98679.38;;;18.49;100.00
7026;BME280;3554;42.132;24.786;2022-11-20T08:46:21;98693.28;;;18.83;100.00
7026;BME280;3554;42.132;24.786;2022-11-20T08:48:48;98677.38;;;19.13;100.00
7026;BME280;3554;42.132;24.786;2022-11-20T08:51:15;98723.44;;;19.63;100.00
7026;BME280;3554;42.132;24.786;2022-11-20T08:53:44;98721.59;;;19.93;100.00
7026;BME280;3554;42.132;24.786;2022-11-20T08:56:11;98724.31;;;20.22;100.00
7026;BME280;3554;42.132;24.786;2022-11-20T08:58:38;98730.34;;;20.53;100.00
7026;BME280;3554;42.132;24.786;2022-11-20T09:01:05;98749.97;;;20.61;100.00
7026;BME280;3554;42.132;24.786;2022-11-20T09:03:32;98733.25;;;20.97;100.00
7026;BME280;3554;42.132;24.786;2022-11-20T09:05:59;98739.44;;;21.07;100.00
7026;BME280;3554;42.132;24.786;2022-11-20T09:08:28;98697.94;;;20.95;100.00
7026;BME280;3554;42.132;24.786;2022-11-20T09:10:56;98710.03;;;21.09;100.00
7026;BME280;3554;42.132;24.786;2022-11-20T09:13:25;98733.69;;;21.49;100.00
7026;BME280;3554;42.132;24.786;2022-11-20T09:15:53;98741.31;;;21.71;100.00
7026;BME280;3554;42.132;24.786;2022-11-20T09:18:22;98745.50;;;21.83;100.00
7026;BME280;3554;42.132;24.786;2022-11-20T09:20:50;98710.06;;;21.73;100.00
7026;BME280;3554;42.132;24.786;2022-11-20T09:23:17;98739.78;;;21.68;100.00
7026;BME280;3554;42.132;24.786;2022-11-20T09:25:44;98731.56;;;21.15;100.00
7026;BME280;3554;42.132;24.786;2022-11-20T09:28:12;98721.38;;;20.63;100.00
7026;BME280;3554;42.132;24.786;2022-11-20T09:30:39;98708.94;;;20.35;100.00
7026;BME280;3554;42.132;24.786;2022-11-20T09:33:06;98708.22;;;20.62;100.00
7026;BME280;3554;42.132;24.786;2022-11-20T09:35:33;98694.75;;;20.92;100.00
7026;BME280;3554;42.132;24.786;2022-11-20T09:38:04;98689.34;;;20.65;100.00
7026;BME280;3554;42.132;24.786;2022-11-20T09:40:32;98658.41;;;20.35;100.00
7026;BME280;3554;42.132;24.786;2022-11-20T09:43:03;98681.84;;;20.97;100.00
7026;BME280;3554;42.132;24.786;2022-11-20T09:45:53;98678.22;;;21.44;100.00
7026;BME280;3554;42.132;24.786;2022-11-20T09:48:33;98677.50;;;21.79;100.00
7026;BME280;3554;42.132;24.786;2022-11-20T09:51:08;98677.47;;;22.06;100.00
7026;BME280;3554;42.132;24.786;2022-11-20T09:53:48;98667.25;;;22.54;100.00
7026;BME280;3554;42.132;24.786;2022-11-20T09:56:19;98674.16;;;22.82;100.00
7026;BME280;3554;42.132;24.786;2022-11-20T09:58:49;98677.47;;;23.27;100.00
7026;BME280;3554;42.132;24.786;2022-11-20T10:01:19;98665.91;;;23.45;100.00
7026;BME280;3554;42.132;24.786;2022-11-20T10:03:54;98679.50;;;23.59;100.00
7026;BME280;3554;42.132;24.786;2022-11-20T10:06:28;98678.34;;;23.62;100.00
7026;BME280;3554;42.132;24.786;2022-11-20T10:09:01;98671.63;;;23.24;100.00
7026;BME280;3554;42.132;24.786;2022-11-20T10:11:41;98672.88;;;22.86;100.00
7026;BME280;3554;42.132;24.786;2022-11-20T10:14:23;98673.59;;;22.53;100.00
7026;BME280;3554;42.132;24.786;2022-11-20T10:17:02;98669.16;;;22.79;100.00
7026;BME280;3554;42.132;24.786;2022-11-20T10:19:47;98677.88;;;22.89;100.00
7026;BME280;3554;42.132;24.786;2022-11-20T10:22:25;98678.47;;;22.75;100.00
7026;BME280;3554;42.132;24.786;2022-11-20T10:24:56;98670.31;;;22.42;100.00
7026;BME280;3554;42.132;24.786;2022-11-20T10:30:26;98644.25;;;22.53;100.00
7026;BME280;3554;42.132;24.786;2022-11-20T10:33:03;98643.19;;;22.46;100.00
7026;BME280;3554;42.132;24.786;2022-11-20T10:35:35;98651.78;;;22.75;100.00
7026;BME280;3554;42.132;24.786;2022-11-20T10:38:09;98652.78;;;22.74;100.00
7026;BME280;3554;42.132;24.786;2022-11-20T10:40:43;98648.94;;;22.77;100.00
7026;BME280;3554;42.132;24.786;2022-11-20T10:43:13;98642.19;;;22.47;100.00
7026;BME280;3554;42.132;24.786;2022-11-20T10:45:48;98627.34;;;22.27;100.00
7026;BME280;3554;42.132;24.786;2022-11-20T10:48:20;98628.19;;;22.10;100.00
7026;BME280;3554;42.132;24.786;2022-11-20T10:50:56;98616.97;;;22.42;100.00
7026;BME280;3554;42.132;24.786;2022-11-20T10:53:40;98616.94;;;22.16;100.00
7026;BME280;3554;42.132;24.786;2022-11-20T10:56:14;98616.69;;;22.09;100.00
7026;BME280;3554;42.132;24.786;2022-11-20T10:58:48;98624.69;;;22.27;100.00
7026;BME280;3554;42.132;24.786;2022-11-20T11:01:20;98621.03;;;22.28;100.00
7026;BME280;3554;42.132;24.786;2022-11-20T11:03:51;98615.91;;;22.34;100.00
7026;BME280;3554;42.132;24.786;2022-11-20T11:06:23;98613.16;;;22.44;100.00
7026;BME280;3554;42.132;24.786;2022-11-20T11:08:53;98595.91;;;21.95;100.00
7026;BME280;3554;42.132;24.786;2022-11-20T11:11:24;98605.88;;;22.11;100.00
7026;BME280;3554;42.132;24.786;2022-11-20T11:13:52;98605.97;;;22.01;100.00
7026;BME280;3554;42.132;24.786;2022-11-20T11:16:23;98605.34;;;22.25;100.00
7026;BME280;3554;42.132;24.786;2022-11-20T11:19:03;98595.53;;;21.90;100.00
7026;BME280;3554;42.132;24.786;2022-11-20T11:21:30;98590.41;;;21.52;100.00
7026;BME280;3554;42.132;24.786;2022-11-20T11:23:59;98577.19;;;21.43;100.00
7026;BME280;3554;42.132;24.786;2022-11-20T11:26:26;98571.28;;;21.21;100.00
7026;BME280;3554;42.132;24.786;2022-11-20T11:28:55;98561.06;;;21.44;100.00
7026;BME280;3554;42.132;24.786;2022-11-20T11:31:23;98570.69;;;21.45;100.00
7026;BME280;3554;42.132;24.786;2022-11-20T11:33:52;98571.94;;;21.51;100.00
7026;BME280;3554;42.132;24.786;2022-11-20T11:36:22;98566.50;;;21.70;100.00
7026;BME280;3554;42.132;24.786;2022-11-20T11:38:52;98576.16;;;21.71;100.00
7026;BME280;3554;42.132;24.786;2022-11-20T11:41:20;98573.47;;;21.71;100.00
7026;BME280;3554;42.132;24.786;2022-11-20T11:43:52;98572.28;;;21.83;100.00
7026;BME280;3554;42.132;24.786;2022-11-20T11:46:37;98589.63;;;21.69;100.00
7026;BME280;3554;42.132;24.786;2022-11-20T11:49:17;98592.69;;;22.09;100.00
7026;BME280;3554;42.132;24.786;2022-11-20T11:51:56;98590.28;;;22.16;100.00
7026;BME280;3554;42.132;24.786;2022-11-20T11:54:28;98585.56;;;21.92;100.00
7026;BME280;3554;42.132;24.786;2022-11-20T11:56:59;98579.94;;;21.68;100.00
7026;BME280;3554;42.132;24.786;2022-11-20T11:59:36;98593.94;;;21.97;100.00
7026;BME280;3554;42.132;24.786;2022-11-20T12:02:15;98587.22;;;22.11;100.00
7026;BME280;3554;42.132;24.786;2022-11-20T12:04:53;98583.22;;;21.89;100.00
7026;BME280;3554;42.132;24.786;2022-11-20T12:07:34;98580.78;;;21.69;100.00
7026;BME280;3554;42.132;24.786;2022-11-20T12:10:02;98570.03;;;21.43;100.00
7026;BME280;3554;42.132;24.786;2022-11-20T12:12:31;98568.81;;;21.38;100.00
7026;BME280;3554;42.132;24.786;2022-11-20T12:15:02;98571.94;;;21.51;100.00
7026;BME280;3554;42.132;24.786;2022-11-20T12:17:30;98567.47;;;21.69;100.00
7026;BME280;3554;42.132;24.786;2022-11-20T12:19:58;98565.19;;;21.74;100.00
7026;BME280;3554;42.132;24.786;2022-11-20T12:22:31;98559.69;;;21.75;100.00
7026;BME280;3554;42.132;24.786;2022-11-20T12:25:04;98561.81;;;21.72;100.00
7026;BME280;3554;42.132;24.786;2022-11-20T12:27:48;98559.06;;;21.91;100.00
7026;BME280;3554;42.132;24.786;2022-11-20T12:30:16;98556.78;;;21.96;100.00
7026;BME280;3554;42.132;24.786;2022-11-20T12:33:09;98561.41;;;21.94;100.00
7026;BME280;3554;42.132;24.786;2022-11-20T12:35:50;98556.78;;;21.78;100.00
7026;BME280;3554;42.132;24.786;2022-11-20T12:41:31;98556.81;;;22.04;100.00
7026;BME280;3554;42.132;24.786;2022-11-20T12:44:34;98545.19;;;22.05;100.00
7026;BME280;3554;42.132;24.786;2022-11-20T12:47:29;98553.09;;;21.97;100.00
7026;BME280;3554;42.132;24.786;2022-11-20T12:50:09;98547.25;;;21.93;100.00
7026;BME280;3554;42.132;24.786;2022-11-20T12:52:46;98554.47;;;22.01;100.00
7026;BME280;3554;42.132;24.786;2022-11-20T12:55:25;98553.25;;;22.13;100.00
7026;BME280;3554;42.132;24.786;2022-11-20T12:57:58;98563.97;;;22.21;100.00
7026;BME280;3554;42.132;24.786;2022-11-20T13:00:27;98555.47;;;22.00;100.00
7026;BME280;3554;42.132;24.786;2022-11-20T13:03:06;98562.94;;;22.14;100.00
7026;BME280;3554;42.132;24.786;2022-11-20T13:05:45;98562.97;;;22.22;100.00
7026;BME280;3554;42.132;24.786;2022-11-20T13:08:20;98556.28;;;22.18;100.00
7026;BME280;3554;42.132;24.786;2022-11-20T13:10:52;98568.63;;;22.19;100.00
7026;BME280;3554;42.132;24.786;2022-11-20T13:13:25;98578.69;;;22.07;100.00
7026;BME280;3554;42.132;24.786;2022-11-20T13:16:00;98566.41;;;22.14;100.00
7026;BME280;3554;42.132;24.786;2022-11-20T13:18:36;98574.34;;;22.06;100.00